Terminal Aerodrome Forecast
Issued by NWS

Current Version | Previous Version | Graphics & Text | Print | Product List | Glossary On
Versions: 1 2 3 4 5 6 7 8 9 10 11 12 13 14 15 16 17 18 19
000
FTUS41 KILN 281400 AAB
TAFLUK
TAF AMD
KLUK 281456Z 2815/2912 21012KT P6SM SCT045 OVC090
     FM281600 23012KT 5SM -SHRA BR SCT028 OVC045
      TEMPO 2816/2817 2SM -SHRA BR BKN022
     FM281800 23011KT P6SM BKN080
     FM282000 27008KT P6SM SCT100 BKN200
     FM290300 29003KT P6SM SCT200=

USA.gov is the U.S. government's official web portal to all federal, state and local government web resources and services.